Kiester, Minnesota
Current Conditions -  °F | °C
As of 10:55 PM on Wednesday 22 Oct 2014 (Local Time) from KAEL Reporting Station
Broken Clouds Broken Clouds  
Wind Chill: 55°   Ceiling: 4900
Heat Index: 55°   Visibility: 10mi
Dew Point: 43°   Wind: 13mph
Humidity: 63%   Direction: 170°S
Pressure: 30.08"   Gusts: NA
Location:  43.54°N, 93.71°W
Report Text: KAEL 230355Z AUTO 17011KT 10SM BKN049 13/06 A3008 RMK AO2
Loading
Personal Weather Stations






























Interactive Weather Map
Tropical Storm Tracking
New forecast layout! Learn more

10-Day Weather Forecast

Advertisements
Track Severe Weather on mobile